Time;durP1;ratioP1;P1;durP2;ratioP2;P2;SDS_P1;SDS_P2;PMS_P1;PMS_P2;Temp;Humidity;BMP_temperature;BMP_pressure;BME280_temperature;BME280_humidity;BME280_pressure;Samples;Min_cycle;Max_cycle;Signal;HPM_P1;HPM_P2
2023/02/06 00:00:40;;;;;;;11.90;7.65;;;-1.10;99.90;;;;;;5093831;28;20684;-83
2023/02/06 00:03:06;;;;;;;14.30;8.07;;;-1.10;99.90;;;;;;5092674;28;20201;-82
2023/02/06 00:05:31;;;;;;;13.87;8.03;;;-1.20;99.90;;;;;;5092597;28;20181;-82
2023/02/06 00:07:57;;;;;;;12.53;7.70;;;-1.20;99.90;;;;;;5093852;28;20204;-83
2023/02/06 00:10:23;;;;;;;15.83;8.03;;;-1.10;99.90;;;;;;5092656;28;20177;-83
2023/02/06 00:12:48;;;;;;;14.77;7.47;;;-1.10;99.90;;;;;;5092564;28;20243;-83
2023/02/06 00:15:15;;;;;;;17.27;8.97;;;-1.10;99.90;;;;;;5093777;28;20228;-82
2023/02/06 00:17:40;;;;;;;12.63;7.90;;;-1.10;99.90;;;;;;5093596;28;20201;-83
2023/02/06 00:20:07;;;;;;;12.70;9.20;;;-1.20;99.90;;;;;;5092963;28;20272;-82
2023/02/06 00:22:34;;;;;;;13.50;7.88;;;-1.20;99.90;;;;;;5092392;28;20544;-83
2023/02/06 00:25:00;;;;;;;13.10;8.02;;;-1.10;99.90;;;;;;5093789;28;20172;-83
2023/02/06 00:27:26;;;;;;;13.83;9.17;;;-1.10;99.90;;;;;;5093550;28;20192;-82
2023/02/06 00:29:52;;;;;;;15.48;9.52;;;-1.00;99.90;;;;;;5093599;28;20527;-82
2023/02/06 00:32:18;;;;;;;13.57;8.80;;;-1.00;99.90;;;;;;5092401;28;20203;-83
2023/02/06 00:34:44;;;;;;;14.67;8.10;;;-1.10;99.90;;;;;;5093620;28;20397;-82
2023/02/06 00:37:10;;;;;;;13.00;8.60;;;-1.10;99.90;;;;;;5092167;28;20440;-83
2023/02/06 00:39:36;;;;;;;18.92;9.05;;;-1.20;99.90;;;;;;5092192;28;21036;-83
2023/02/06 00:42:02;;;;;;;15.27;7.80;;;-1.20;99.90;;;;;;5094013;28;20173;-83
2023/02/06 00:44:28;;;;;;;12.95;8.27;;;-1.20;99.90;;;;;;5092266;28;20968;-82
2023/02/06 00:46:54;;;;;;;13.47;8.50;;;-1.40;99.90;;;;;;5092329;28;20283;-83
2023/02/06 00:49:20;;;;;;;18.05;8.45;;;-1.40;99.90;;;;;;5093401;28;20419;-83
2023/02/06 00:51:46;;;;;;;11.83;8.47;;;-1.50;99.90;;;;;;5093476;28;20184;-83
2023/02/06 00:54:12;;;;;;;15.32;8.50;;;-1.50;99.90;;;;;;5093020;28;20896;-83
2023/02/06 00:56:38;;;;;;;17.67;8.70;;;-1.40;99.90;;;;;;5096233;28;20180;-82
2023/02/06 00:59:05;;;;;;;14.07;8.10;;;-1.40;99.90;;;;;;5097145;28;20189;-82
2023/02/06 01:01:31;;;;;;;13.18;8.10;;;-1.50;99.90;;;;;;5097523;28;20388;-83
2023/02/06 01:03:56;;;;;;;15.90;9.30;;;-1.50;99.90;;;;;;5095890;28;20261;-83
2023/02/06 01:06:23;;;;;;;13.80;8.25;;;-1.40;99.90;;;;;;5096208;28;20482;-83
2023/02/06 01:08:48;;;;;;;13.60;8.75;;;-1.40;99.90;;;;;;5095850;28;20237;-83
2023/02/06 01:11:17;;;;;;;15.30;8.50;;;-1.40;99.90;;;;;;5095658;28;20308;-83
2023/02/06 01:13:44;;;;;;;14.30;8.68;;;-1.50;99.90;;;;;;5095662;28;20599;-81
2023/02/06 01:16:17;;;;;;;14.90;8.68;;;-1.50;99.90;;;;;;5095696;28;20264;-82
2023/02/06 01:18:43;;;;;;;15.77;8.70;;;-1.40;99.90;;;;;;5095572;28;20205;-82
2023/02/06 01:21:21;;;;;;;18.60;9.87;;;-1.40;99.90;;;;;;5095758;28;20243;-83
2023/02/06 01:23:48;;;;;;;13.07;8.88;;;-1.40;99.90;;;;;;5095464;28;20257;-82
2023/02/06 01:26:16;;;;;;;15.50;8.85;;;-1.50;99.90;;;;;;5097010;28;20168;-83
2023/02/06 01:28:43;;;;;;;18.30;8.30;;;-1.50;99.90;;;;;;5095445;28;20204;-83
2023/02/06 01:31:18;;;;;;;13.32;8.23;;;-1.50;99.90;;;;;;5095511;28;20170;-83
2023/02/06 01:33:45;;;;;;;14.20;7.97;;;-1.60;99.90;;;;;;5096630;28;20200;-83
2023/02/06 01:36:13;;;;;;;15.65;8.35;;;-1.60;99.90;;;;;;5096636;28;20161;-83
2023/02/06 01:38:39;;;;;;;14.27;8.70;;;-1.60;99.90;;;;;;5095261;28;20295;-83
2023/02/06 01:41:06;;;;;;;22.88;11.25;;;-1.60;99.90;;;;;;5095374;28;20249;-83
2023/02/06 01:43:34;;;;;;;17.05;9.73;;;-1.50;99.90;;;;;;5095069;28;20232;-83
2023/02/06 01:46:00;;;;;;;12.50;8.70;;;-1.40;99.90;;;;;;5095281;28;20169;-84
2023/02/06 01:48:35;;;;;;;11.93;8.00;;;-1.40;99.90;;;;;;5095015;28;20203;-83
2023/02/06 01:51:03;;;;;;;15.30;8.77;;;-1.40;99.90;;;;;;5095129;28;20774;-83
2023/02/06 01:53:29;;;;;;;16.05;10.10;;;-1.40;99.90;;;;;;5096158;28;20712;-83
2023/02/06 01:55:58;;;;;;;14.98;8.80;;;-1.40;99.90;;;;;;5095197;28;20568;-84
2023/02/06 01:58:30;;;;;;;16.45;8.70;;;-1.40;99.90;;;;;;5096059;28;20197;-83
2023/02/06 02:00:58;;;;;;;15.95;9.85;;;-1.40;99.90;;;;;;5094909;28;20219;-84
2023/02/06 02:03:24;;;;;;;15.10;8.10;;;-1.50;99.90;;;;;;5094961;28;20573;-83
2023/02/06 02:05:54;;;;;;;17.08;8.95;;;-1.50;99.90;;;;;;5095730;28;20179;-82
2023/02/06 02:08:30;;;;;;;19.10;9.23;;;-1.50;99.90;;;;;;5095954;28;20275;-84
2023/02/06 02:10:59;;;;;;;16.73;8.90;;;-1.50;99.90;;;;;;5096154;28;20672;-83
2023/02/06 02:13:24;;;;;;;18.98;10.20;;;-1.50;99.90;;;;;;5117951;28;20200;-85
2023/02/06 02:16:17;;;;;;;16.20;9.60;;;-1.40;99.90;;;;;;5117041;28;20221;-83
2023/02/06 02:18:59;;;;;;;13.80;8.52;;;-1.40;99.90;;;;;;5116062;28;20200;-83
2023/02/06 02:22:08;;;;;;;13.05;8.50;;;-1.40;99.90;;;;;;5097880;28;20258;-84
2023/02/06 02:25:11;;;;;;;16.77;9.35;;;-1.40;99.90;;;;;;5116026;28;20215;-83
2023/02/06 02:28:10;;;;;;;12.95;9.20;;;-1.30;99.90;;;;;;5115809;28;20207;-84
2023/02/06 02:30:45;;;;;;;13.30;7.45;;;-1.40;99.90;;;;;;5097566;28;20261;-83
2023/02/06 02:33:20;;;;;;;12.30;8.63;;;-1.40;99.90;;;;;;5097566;28;20267;-83
2023/02/06 02:36:05;;;;;;;15.32;8.63;;;-1.50;99.90;;;;;;5097503;28;20176;-83
2023/02/06 02:38:56;;;;;;;11.75;8.02;;;-1.60;99.90;;;;;;5097488;28;20204;-83
2023/02/06 02:41:42;;;;;;;14.00;8.82;;;-1.60;99.90;;;;;;5115974;28;20272;-83
2023/02/06 02:44:29;;;;;;;15.60;8.85;;;-1.50;99.90;;;;;;5115862;28;20204;-83
2023/02/06 02:46:57;;;;;;;12.95;7.90;;;-1.50;99.90;;;;;;5115578;28;20183;-84
2023/02/06 02:49:28;;;;;;;20.83;10.02;;;-1.50;99.90;;;;;;5115496;28;20199;-83
2023/02/06 02:51:55;;;;;;;15.57;8.80;;;-1.50;99.90;;;;;;5115428;28;20537;-84
2023/02/06 02:54:21;;;;;;;15.05;9.60;;;-1.50;99.90;;;;;;5097165;28;20176;-83
2023/02/06 02:56:46;;;;;;;13.80;7.63;;;-1.50;99.90;;;;;;5097658;28;20667;-84
2023/02/06 02:59:22;;;;;;;13.77;8.50;;;-1.50;99.90;;;;;;5117516;28;20641;-83
2023/02/06 03:02:14;;;;;;;14.27;8.00;;;-1.40;99.90;;;;;;5097247;28;20189;-83
2023/02/06 03:04:52;;;;;;;14.60;8.95;;;-1.40;99.90;;;;;;5115493;28;20167;-83
2023/02/06 03:07:24;;;;;;;13.95;7.50;;;-1.50;99.90;;;;;;5097041;28;20202;-83
2023/02/06 03:09:57;;;;;;;13.80;8.80;;;-1.50;99.90;;;;;;5097007;28;20180;-82
2023/02/06 03:13:02;;;;;;;16.20;9.27;;;-1.50;99.90;;;;;;5114854;28;20231;-84
2023/02/06 03:15:30;;;;;;;15.93;8.82;;;-1.50;99.90;;;;;;5096660;28;20175;-83
2023/02/06 03:18:35;;;;;;;14.88;9.00;;;-1.50;99.90;;;;;;5095912;28;20203;-83
2023/02/06 03:21:04;;;;;;;17.05;8.43;;;-1.50;99.90;;;;;;5053523;28;20318;-83
2023/02/06 03:23:34;;;;;;;15.13;10.20;;;-1.40;99.90;;;;;;5096605;28;20192;-84
2023/02/06 03:26:04;;;;;;;17.40;11.05;;;-1.50;99.90;;;;;;5115147;28;20192;-83
2023/02/06 03:28:41;;;;;;;19.00;10.23;;;-1.50;99.90;;;;;;5114767;28;20196;-83
2023/02/06 03:31:12;;;;;;;20.05;10.93;;;-1.50;99.90;;;;;;5115200;28;20224;-84
2023/02/06 03:33:46;;;;;;;19.30;11.65;;;-1.60;99.90;;;;;;5096442;28;20192;-83
2023/02/06 03:36:17;;;;;;;15.32;9.27;;;-1.60;99.90;;;;;;5096566;28;20179;-83
2023/02/06 03:38:51;;;;;;;14.82;9.68;;;-1.60;99.90;;;;;;5096367;28;21095;-83
2023/02/06 03:41:19;;;;;;;17.35;8.77;;;-1.60;99.90;;;;;;5114536;28;20552;-83
2023/02/06 03:43:47;;;;;;;14.68;8.80;;;-1.50;99.90;;;;;;5096631;28;20200;-83
2023/02/06 03:46:14;;;;;;;12.85;8.70;;;-1.60;99.90;;;;;;5099977;28;20187;-84
2023/02/06 03:48:44;;;;;;;11.40;7.55;;;-1.50;99.90;;;;;;5116780;28;20195;-84
2023/02/06 03:51:25;;;;;;;11.45;7.57;;;-1.60;99.90;;;;;;5097422;28;20191;-82
2023/02/06 03:53:53;;;;;;;13.05;7.30;;;-1.70;99.90;;;;;;5096228;28;20216;-83
2023/02/06 03:56:28;;;;;;;13.48;8.70;;;-1.70;99.90;;;;;;5096245;28;20175;-83
2023/02/06 03:58:53;;;;;;;13.55;7.93;;;-1.80;99.90;;;;;;5114439;28;20673;-84
2023/02/06 04:01:21;;;;;;;13.40;7.77;;;-1.80;99.90;;;;;;5114502;28;20265;-82
2023/02/06 04:03:46;;;;;;;13.40;8.52;;;-1.80;99.90;;;;;;5095931;28;20283;-83
2023/02/06 04:06:12;;;;;;;18.63;9.73;;;-1.90;99.90;;;;;;5114531;28;20263;-83
2023/02/06 04:08:38;;;;;;;13.03;8.23;;;-1.80;99.90;;;;;;5095860;28;20218;-83
2023/02/06 04:11:03;;;;;;;14.40;8.53;;;-1.70;99.90;;;;;;5114267;28;20507;-83
2023/02/06 04:13:29;;;;;;;17.07;8.20;;;-1.80;99.90;;;;;;5095992;28;20640;-83
2023/02/06 04:15:55;;;;;;;18.20;8.90;;;-1.80;99.90;;;;;;5095949;28;20221;-83
2023/02/06 04:18:22;;;;;;;14.47;8.60;;;-1.90;99.90;;;;;;5095935;28;20418;-83
2023/02/06 04:20:50;;;;;;;13.40;8.13;;;-1.90;99.90;;;;;;5095834;28;20222;-83
2023/02/06 04:23:17;;;;;;;14.93;7.28;;;-1.80;99.90;;;;;;5114195;28;20188;-83
2023/02/06 04:25:43;;;;;;;12.05;8.20;;;-1.90;99.90;;;;;;5114229;28;20182;-83
2023/02/06 04:28:09;;;;;;;12.70;8.37;;;-1.80;99.90;;;;;;5096270;28;20196;-82
2023/02/06 04:30:34;;;;;;;14.53;7.60;;;-1.90;99.90;;;;;;5118104;28;20176;-82
2023/02/06 04:33:00;;;;;;;12.13;7.93;;;-1.90;99.90;;;;;;5099844;28;20235;-82
2023/02/06 04:35:26;;;;;;;15.30;9.07;;;-1.90;99.90;;;;;;5118222;28;20664;-83
2023/02/06 04:37:52;;;;;;;13.27;8.17;;;-1.90;99.90;;;;;;5099820;28;20561;-83
2023/02/06 04:40:18;;;;;;;14.77;8.27;;;-2.00;99.90;;;;;;5099673;28;20573;-83
2023/02/06 04:42:44;;;;;;;12.80;7.70;;;-2.00;99.90;;;;;;5099640;28;20435;-83
2023/02/06 04:45:10;;;;;;;16.80;9.05;;;-2.00;99.90;;;;;;5099766;28;20192;-82
2023/02/06 04:47:35;;;;;;;14.00;7.53;;;-2.00;99.90;;;;;;5099545;28;20607;-83
2023/02/06 04:50:02;;;;;;;17.23;9.13;;;-2.10;99.90;;;;;;5099625;28;20221;-83
2023/02/06 04:52:28;;;;;;;15.57;9.13;;;-2.10;99.90;;;;;;5117425;28;20679;-83
2023/02/06 04:54:53;;;;;;;13.77;7.93;;;-2.10;99.90;;;;;;5099402;28;20168;-83
2023/02/06 04:57:19;;;;;;;20.20;10.03;;;-2.00;99.90;;;;;;5099318;28;20490;-83
2023/02/06 04:59:45;;;;;;;17.23;9.80;;;-2.00;99.90;;;;;;5117511;28;20204;-83
2023/02/06 05:02:11;;;;;;;19.63;9.87;;;-2.10;99.90;;;;;;5099523;28;20195;-83
2023/02/06 05:04:37;;;;;;;18.80;9.57;;;-2.10;99.90;;;;;;5099356;28;20240;-82
2023/02/06 05:07:04;;;;;;;16.45;9.05;;;-2.20;99.90;;;;;;5099352;28;20208;-83
2023/02/06 05:09:29;;;;;;;37.30;18.30;;;-2.20;99.90;;;;;;5117513;28;20220;-82
2023/02/06 05:11:55;;;;;;;18.60;10.10;;;-2.20;99.90;;;;;;5099025;28;20235;-83
2023/02/06 05:14:21;;;;;;;17.40;10.53;;;-2.20;99.90;;;;;;5117481;28;20176;-82
2023/02/06 05:16:47;;;;;;;15.27;9.67;;;-2.20;99.90;;;;;;5117692;28;20172;-82
2023/02/06 05:19:12;;;;;;;16.00;9.13;;;-2.30;99.90;;;;;;5098964;28;20175;-81
2023/02/06 05:21:38;;;;;;;15.30;10.17;;;-2.30;99.90;;;;;;5117281;28;20963;-82
2023/02/06 05:24:03;;;;;;;14.70;9.47;;;-2.30;99.90;;;;;;5102494;27;20216;-83
2023/02/06 05:26:29;;;;;;;16.10;9.17;;;-2.30;99.90;;;;;;5078049;28;20264;-83
2023/02/06 05:28:55;;;;;;;16.40;10.03;;;-2.30;99.90;;;;;;5081796;28;20540;-83
2023/02/06 05:31:21;;;;;;;15.93;9.93;;;-2.40;99.90;;;;;;5112364;28;20707;-83
2023/02/06 05:33:50;;;;;;;18.07;9.77;;;-2.50;99.90;;;;;;5114796;28;20551;-82
2023/02/06 05:36:17;;;;;;;17.13;9.63;;;-2.50;99.90;;;;;;5115099;28;20179;-83
2023/02/06 05:38:43;;;;;;;17.80;10.70;;;-2.40;99.90;;;;;;5095517;28;20471;-83
2023/02/06 05:41:09;;;;;;;14.63;8.45;;;-2.50;99.90;;;;;;5095823;28;20215;-83
2023/02/06 05:43:35;;;;;;;15.77;8.87;;;-2.40;99.90;;;;;;5096389;28;20200;-82
2023/02/06 05:46:01;;;;;;;17.25;9.25;;;-2.40;99.90;;;;;;5114900;28;20383;-82
2023/02/06 05:48:27;;;;;;;19.00;9.25;;;-2.50;99.90;;;;;;5096338;28;20208;-82
2023/02/06 05:50:53;;;;;;;13.70;9.52;;;-2.50;99.90;;;;;;5113616;28;20184;-83
2023/02/06 05:53:19;;;;;;;17.93;10.57;;;-2.50;99.90;;;;;;5095745;28;20206;-82
2023/02/06 05:55:44;;;;;;;17.70;10.23;;;-2.60;99.90;;;;;;5096395;28;20184;-84
2023/02/06 05:58:10;;;;;;;13.60;8.83;;;-2.60;99.90;;;;;;5115542;28;20577;-82
2023/02/06 06:00:36;;;;;;;15.32;9.48;;;-2.50;99.90;;;;;;5097644;28;20212;-84
2023/02/06 06:03:02;;;;;;;17.53;9.20;;;-2.50;99.90;;;;;;5099499;28;20567;-83
2023/02/06 06:05:28;;;;;;;13.80;9.00;;;-2.60;99.90;;;;;;5118635;28;20621;-83
2023/02/06 06:07:54;;;;;;;16.02;8.95;;;-2.60;99.90;;;;;;5097984;28;20226;-83
2023/02/06 06:10:20;;;;;;;17.53;10.10;;;-2.60;99.90;;;;;;5091252;28;20176;-82
2023/02/06 06:12:45;;;;;;;17.27;10.40;;;-2.50;99.90;;;;;;5083804;28;20524;-82
2023/02/06 06:15:11;;;;;;;22.23;11.60;;;-2.60;99.90;;;;;;5080950;28;20410;-82
2023/02/06 06:17:37;;;;;;;17.83;10.20;;;-2.50;99.90;;;;;;5083476;28;20249;-82
2023/02/06 06:20:03;;;;;;;29.93;14.87;;;-2.50;99.90;;;;;;5084320;28;20571;-83
2023/02/06 06:22:28;;;;;;;26.50;15.02;;;-2.50;99.90;;;;;;5081848;28;20197;-82
2023/02/06 06:24:54;;;;;;;19.00;11.23;;;-2.50;99.90;;;;;;5087475;28;20183;-83
2023/02/06 06:27:20;;;;;;;16.10;10.07;;;-2.50;99.90;;;;;;5082156;28;20204;-83
2023/02/06 06:29:46;;;;;;;15.03;10.53;;;-2.40;99.90;;;;;;5082091;28;20199;-82
2023/02/06 06:32:12;;;;;;;20.63;10.27;;;-2.50;99.90;;;;;;5080898;28;20411;-83
2023/02/06 06:34:38;;;;;;;13.63;8.60;;;-2.40;99.90;;;;;;5084726;28;20177;-82
2023/02/06 06:37:03;;;;;;;18.30;11.47;;;-2.30;99.90;;;;;;5085838;28;20227;-83
2023/02/06 06:39:29;;;;;;;18.77;10.70;;;-2.40;99.90;;;;;;5084727;28;20180;-82
2023/02/06 06:41:55;;;;;;;15.80;9.83;;;-2.30;99.90;;;;;;5081709;28;20263;-83
2023/02/06 06:44:21;;;;;;;15.93;9.37;;;-2.20;99.90;;;;;;5080421;28;20938;-82
2023/02/06 06:46:47;;;;;;;11.95;7.95;;;-2.10;99.90;;;;;;5084921;28;20445;-83
2023/02/06 06:49:13;;;;;;;18.10;10.25;;;-2.00;99.90;;;;;;5082012;28;20570;-82
2023/02/06 06:51:39;;;;;;;19.77;9.00;;;-1.90;99.90;;;;;;5077293;28;20208;-83
2023/02/06 06:54:04;;;;;;;19.40;10.30;;;-1.80;99.90;;;;;;5079441;28;20196;-82
2023/02/06 06:56:31;;;;;;;18.93;10.10;;;-1.80;99.90;;;;;;5077249;28;20179;-82
2023/02/06 06:58:57;;;;;;;17.85;9.80;;;-1.70;99.90;;;;;;5073831;28;20293;-83
2023/02/06 07:01:22;;;;;;;20.17;9.60;;;-1.50;99.90;;;;;;5081376;28;20208;-83
2023/02/06 07:03:48;;;;;;;16.87;11.17;;;-1.50;99.90;;;;;;5080900;28;20196;-82
2023/02/06 07:06:15;;;;;;;17.37;9.30;;;-1.40;99.90;;;;;;5079017;28;20195;-83
2023/02/06 07:08:42;;;;;;;17.88;10.05;;;-1.40;99.90;;;;;;5077765;28;20192;-83
2023/02/06 07:11:13;;;;;;;20.33;9.05;;;-1.40;99.90;;;;;;5083314;28;20224;-83
2023/02/06 07:13:39;;;;;;;16.02;9.82;;;-1.30;99.90;;;;;;5100958;28;20242;-83
2023/02/06 07:16:06;;;;;;;16.75;9.15;;;-1.20;99.90;;;;;;5081961;28;20176;-83
2023/02/06 07:18:32;;;;;;;12.80;9.20;;;-1.10;99.90;;;;;;5099787;28;20226;-83
2023/02/06 07:20:58;;;;;;;14.03;9.67;;;-1.00;99.90;;;;;;5081201;28;20291;-83
2023/02/06 07:23:24;;;;;;;17.90;9.57;;;-0.90;99.90;;;;;;5093540;28;20399;-83
2023/02/06 07:25:50;;;;;;;13.47;9.00;;;-0.80;99.90;;;;;;5107898;28;20182;-84
2023/02/06 07:28:16;;;;;;;22.43;14.13;;;-0.70;99.90;;;;;;5080415;28;20953;-85
2023/02/06 07:30:42;;;;;;;17.17;10.33;;;-0.60;99.90;;;;;;5083034;28;20453;-83
2023/02/06 07:33:08;;;;;;;16.70;9.95;;;-0.40;99.90;;;;;;5091596;28;20203;-83
2023/02/06 07:35:33;;;;;;;16.43;10.10;;;-0.20;99.90;;;;;;5077961;28;20176;-83
2023/02/06 07:37:59;;;;;;;15.17;9.30;;;0.00;99.90;;;;;;5089154;28;20422;-83
2023/02/06 07:40:25;;;;;;;16.57;9.90;;;0.20;99.90;;;;;;5077001;28;20681;-83
2023/02/06 07:42:51;;;;;;;13.93;9.13;;;0.50;99.90;;;;;;5094638;28;20892;-84
2023/02/06 07:45:16;;;;;;;14.33;9.07;;;0.70;99.90;;;;;;5082628;28;21150;-83
2023/02/06 07:47:43;;;;;;;18.10;12.03;;;0.90;99.90;;;;;;5092802;28;20497;-83
2023/02/06 07:50:09;;;;;;;15.15;10.35;;;1.10;99.90;;;;;;5072800;28;20839;-84
2023/02/06 07:52:35;;;;;;;13.10;10.02;;;1.40;99.90;;;;;;5085390;28;20307;-83
2023/02/06 07:55:01;;;;;;;15.47;10.80;;;1.90;99.90;;;;;;5081598;28;20177;-83
2023/02/06 07:57:27;;;;;;;19.70;11.57;;;2.50;99.90;;;;;;5076656;28;20259;-83
2023/02/06 07:59:52;;;;;;;16.23;10.13;;;3.30;99.90;;;;;;5094067;28;20624;-83
2023/02/06 08:02:18;;;;;;;13.53;9.47;;;4.00;99.20;;;;;;5090526;28;20191;-84
2023/02/06 08:04:44;;;;;;;15.60;9.67;;;4.70;97.70;;;;;;5085107;28;20176;-84
2023/02/06 08:07:13;;;;;;;14.97;9.77;;;5.60;97.00;;;;;;5086035;28;20414;-85
2023/02/06 08:09:40;;;;;;;14.48;9.07;;;6.40;95.10;;;;;;5094297;28;20176;-84
2023/02/06 08:12:06;;;;;;;14.65;9.73;;;7.30;93.60;;;;;;5086477;28;20282;-84
2023/02/06 08:14:32;;;;;;;11.77;8.38;;;8.10;92.00;;;;;;5082851;28;20263;-84
2023/02/06 08:16:58;;;;;;;12.15;9.05;;;8.80;90.50;;;;;;5083036;28;20616;-85
2023/02/06 08:19:24;;;;;;;14.27;9.70;;;9.40;89.50;;;;;;5100901;28;20232;-83
2023/02/06 08:21:50;;;;;;;12.73;8.30;;;10.10;86.80;;;;;;5079744;28;20626;-84
2023/02/06 08:24:16;;;;;;;13.73;9.75;;;10.70;83.40;;;;;;5090785;28;20197;-84
2023/02/06 08:26:42;;;;;;;13.03;8.90;;;11.30;81.20;;;;;;5089086;28;20207;-84
2023/02/06 08:29:09;;;;;;;14.32;9.27;;;11.60;78.50;;;;;;5089239;28;20618;-84
2023/02/06 08:31:38;;;;;;;14.73;9.93;;;12.00;77.30;;;;;;5069293;28;20180;-84
2023/02/06 08:34:05;;;;;;;16.08;9.85;;;12.40;75.90;;;;;;5071944;28;20192;-84
2023/02/06 08:36:31;;;;;;;13.20;9.88;;;12.90;75.00;;;;;;5089492;28;20600;-84
2023/02/06 08:38:58;;;;;;;11.70;8.13;;;13.40;73.10;;;;;;5091756;28;20200;-84
2023/02/06 08:41:26;;;;;;;17.55;11.65;;;13.80;71.50;;;;;;5093259;28;20719;-84
2023/02/06 08:43:54;;;;;;;12.93;8.80;;;14.20;69.40;;;;;;5109362;28;20204;-84
2023/02/06 08:46:21;;;;;;;13.05;9.38;;;14.10;69.00;;;;;;5107790;28;20648;-83
2023/02/06 08:48:47;;;;;;;12.57;9.25;;;14.20;69.40;;;;;;5089183;28;20203;-84
2023/02/06 08:51:14;;;;;;;12.40;9.33;;;14.50;68.00;;;;;;5110958;28;20190;-84
2023/02/06 08:53:40;;;;;;;12.27;8.70;;;14.80;67.00;;;;;;5085931;28;20228;-84
2023/02/06 08:56:08;;;;;;;10.87;8.90;;;15.20;65.30;;;;;;5101301;28;21082;-84
2023/02/06 08:58:35;;;;;;;13.20;9.10;;;15.40;65.30;;;;;;5103145;28;20428;-84
2023/02/06 09:01:13;;;;;;;12.37;9.17;;;15.50;63.90;;;;;;5082993;28;20472;-84
2023/02/06 09:03:40;;;;;;;12.70;9.07;;;15.30;63.80;;;;;;5084783;28;20537;-85
2023/02/06 09:06:06;;;;;;;11.80;9.03;;;15.10;64.00;;;;;;5104128;28;20444;-85
2023/02/06 09:08:32;;;;;;;33.30;20.07;;;15.10;63.00;;;;;;5101433;28;20789;-85
2023/02/06 09:11:14;;;;;;;16.90;9.67;;;15.20;63.80;;;;;;5081529;28;20184;-83
2023/02/06 09:13:42;;;;;;;9.50;8.43;;;15.20;63.20;;;;;;5097990;28;20449;-83
2023/02/06 09:16:08;;;;;;;13.23;10.70;;;15.10;62.60;;;;;;5101677;28;20424;-84
2023/02/06 09:18:34;;;;;;;11.00;8.73;;;14.70;63.00;;;;;;5102617;28;20534;-84
2023/02/06 09:21:13;;;;;;;12.00;8.67;;;14.50;63.10;;;;;;5103001;28;20467;-83
2023/02/06 09:23:42;;;;;;;11.23;8.63;;;14.10;63.60;;;;;;5100710;28;20428;-83
2023/02/06 09:26:12;;;;;;;12.97;8.90;;;13.90;64.00;;;;;;5101201;28;20412;-84
2023/02/06 09:28:38;;;;;;;14.67;11.17;;;13.80;63.80;;;;;;5099971;28;21268;-83
2023/02/06 09:31:05;;;;;;;12.50;9.00;;;13.80;63.90;;;;;;5098793;28;20433;-83
2023/02/06 09:33:31;;;;;;;14.27;9.37;;;13.70;64.40;;;;;;5101093;28;20249;-84
2023/02/06 09:36:05;;;;;;;12.00;8.77;;;13.80;64.20;;;;;;5088193;28;20424;-83
2023/02/06 09:38:31;;;;;;;13.10;8.00;;;14.10;63.90;;;;;;5095906;28;21013;-84
2023/02/06 09:41:00;;;;;;;11.47;9.03;;;14.20;63.30;;;;;;5092134;28;20475;-84
2023/02/06 09:43:26;;;;;;;13.13;8.23;;;14.10;63.00;;;;;;5103201;28;20447;-84
2023/02/06 09:45:59;;;;;;;12.83;8.37;;;14.10;63.00;;;;;;5080190;28;20442;-83
2023/02/06 09:48:29;;;;;;;12.33;9.30;;;14.10;63.60;;;;;;5091874;28;20535;-85
2023/02/06 09:51:07;;;;;;;12.93;8.53;;;14.30;63.50;;;;;;5105773;28;20427;-84
2023/02/06 09:53:55;;;;;;;11.80;8.97;;;14.50;62.40;;;;;;5099984;28;20464;-84
2023/02/06 09:56:21;;;;;;;11.40;8.20;;;14.70;62.30;;;;;;5083558;28;20452;-84
2023/02/06 09:59:04;;;;;;;15.87;11.40;;;14.90;62.80;;;;;;5094519;28;20462;-84
2023/02/06 10:01:46;;;;;;;15.73;11.50;;;14.60;62.10;;;;;;5077605;28;20534;-83
2023/02/06 10:04:24;;;;;;;11.07;8.50;;;13.90;62.80;;;;;;5083616;28;20444;-83
2023/02/06 10:07:17;;;;;;;10.47;8.50;;;13.70;63.60;;;;;;5095254;28;20459;-83
2023/02/06 10:10:09;;;;;;;14.43;9.77;;;13.60;63.10;;;;;;5092258;28;20871;-83
2023/02/06 10:12:41;;;;;;;11.33;8.50;;;13.40;63.60;;;;;;5073274;28;20507;-82
2023/02/06 10:15:15;;;;;;;11.48;7.60;;;12.90;64.10;;;;;;5108716;28;20428;-83
2023/02/06 10:18:08;;;;;;;11.45;8.32;;;12.40;65.20;;;;;;5089397;28;20208;-83
2023/02/06 10:20:39;;;;;;;13.27;8.73;;;11.90;66.20;;;;;;5089476;28;20216;-83
2023/02/06 10:23:19;;;;;;;11.40;7.72;;;11.40;66.50;;;;;;5109982;28;20191;-84
2023/02/06 10:26:06;;;;;;;11.68;8.02;;;10.70;69.00;;;;;;5090595;28;20284;-83
2023/02/06 10:28:34;;;;;;;15.15;9.10;;;10.30;68.10;;;;;;5080351;28;20202;-83
2023/02/06 10:31:24;;;;;;;10.27;7.93;;;10.00;68.50;;;;;;5073583;28;20172;-83
2023/02/06 10:34:27;;;;;;;14.68;7.72;;;9.50;69.40;;;;;;5073928;28;20197;-84
2023/02/06 10:36:56;;;;;;;10.95;7.55;;;9.10;69.80;;;;;;5081708;28;20172;-84
2023/02/06 10:39:33;;;;;;;10.80;7.80;;;8.80;70.00;;;;;;5088673;28;20207;-83
2023/02/06 10:42:19;;;;;;;11.13;7.75;;;8.50;71.10;;;;;;5092038;28;20208;-83
2023/02/06 10:45:00;;;;;;;13.60;7.75;;;8.40;72.10;;;;;;5096414;28;20180;-83
2023/02/06 10:47:43;;;;;;;10.95;7.95;;;8.20;73.50;;;;;;5087215;28;20226;-83
2023/02/06 10:50:29;;;;;;;12.48;8.25;;;8.10;73.10;;;;;;5104932;28;20178;-84
2023/02/06 10:52:58;;;;;;;10.23;7.38;;;8.00;72.90;;;;;;5106924;28;20203;-83
2023/02/06 10:55:24;;;;;;;9.80;7.60;;;7.90;72.40;;;;;;5098865;28;20195;-83
2023/02/06 10:58:14;;;;;;;12.13;7.60;;;7.80;73.00;;;;;;5077380;28;20238;-83
2023/02/06 11:00:42;;;;;;;12.80;9.77;;;7.70;73.40;;;;;;5102947;28;20319;-83
2023/02/06 11:03:14;;;;;;;11.52;7.65;;;7.50;73.50;;;;;;5082194;28;20196;-82
2023/02/06 11:05:40;;;;;;;9.95;7.88;;;7.30;73.30;;;;;;5109763;28;20171;-83
2023/02/06 11:08:27;;;;;;;14.23;9.17;;;7.20;74.30;;;;;;5094149;28;20196;-83
2023/02/06 11:10:53;;;;;;;13.05;9.77;;;7.30;75.60;;;;;;5083850;28;20443;-83
2023/02/06 11:13:26;;;;;;;12.00;8.07;;;7.30;75.00;;;;;;5098264;28;20210;-83
2023/02/06 11:16:12;;;;;;;13.82;8.63;;;7.20;74.70;;;;;;5087135;28;20186;-83
2023/02/06 11:18:42;;;;;;;11.68;7.97;;;7.20;74.90;;;;;;5113973;28;20200;-84
2023/02/06 11:21:09;;;;;;;10.95;7.68;;;7.10;75.10;;;;;;5088956;28;20219;-84
2023/02/06 11:23:35;;;;;;;10.48;7.55;;;7.00;75.50;;;;;;5108930;28;20207;-83
2023/02/06 11:26:18;;;;;;;11.60;7.47;;;7.00;75.20;;;;;;5095021;28;20184;-82
2023/02/06 11:29:12;;;;;;;10.95;7.10;;;7.00;75.00;;;;;;5103008;28;20484;-83
2023/02/06 11:31:42;;;;;;;11.13;7.03;;;7.00;76.10;;;;;;5070032;28;20260;-83
2023/02/06 11:34:43;;;;;;;9.55;4.28;;;7.00;75.90;;;;;;5105508;28;20588;-83
2023/02/06 11:37:31;;;;;;;10.95;6.70;;;6.90;78.70;;;;;;5086404;28;20673;-83
2023/02/06 11:40:15;;;;;;;10.60;7.22;;;6.90;76.00;;;;;;5101689;28;20214;-82
2023/02/06 11:42:41;;;;;;;22.15;13.75;;;6.90;75.80;;;;;;5097577;28;20627;-83
2023/02/06 11:45:28;;;;;;;17.47;9.40;;;6.90;76.70;;;;;;5101223;28;20169;-84
2023/02/06 11:47:54;;;;;;;11.98;7.80;;;6.90;76.70;;;;;;5105475;28;20199;-83
2023/02/06 11:50:30;;;;;;;16.90;9.43;;;6.90;76.50;;;;;;5107324;28;20196;-84
2023/02/06 11:53:16;;;;;;;10.68;7.70;;;6.90;77.00;;;;;;5089092;28;20199;-83
2023/02/06 11:55:43;;;;;;;18.33;11.23;;;6.90;76.80;;;;;;5094361;28;20271;-84
2023/02/06 11:58:11;;;;;;;12.43;9.10;;;6.90;76.70;;;;;;5074369;28;20273;-83
2023/02/06 12:00:51;;;;;;;12.32;8.10;;;6.90;76.50;;;;;;5100717;28;20617;-85
2023/02/06 12:03:31;;;;;;;8.20;6.75;;;6.90;76.50;;;;;;5105359;28;20211;-82
2023/02/06 12:06:27;;;;;;;11.50;7.97;;;6.90;76.00;;;;;;5104110;28;20175;-83
2023/02/06 12:08:57;;;;;;;11.77;8.07;;;6.90;77.00;;;;;;5094633;28;20197;-84
2023/02/06 12:11:28;;;;;;;13.13;8.60;;;6.90;76.50;;;;;;5070905;28;20235;-84
2023/02/06 12:14:08;;;;;;;13.40;8.63;;;6.90;76.90;;;;;;5083305;28;20285;-84
2023/02/06 12:16:38;;;;;;;20.98;11.40;;;6.80;77.80;;;;;;5109512;28;20692;-83
2023/02/06 12:19:13;;;;;;;10.20;7.10;;;6.70;76.80;;;;;;5094956;28;20678;-84
2023/02/06 12:21:45;;;;;;;12.80;7.22;;;6.60;76.60;;;;;;5097494;28;20207;-84
2023/02/06 12:24:29;;;;;;;11.63;7.75;;;6.60;77.40;;;;;;5080214;28;21458;-83
2023/02/06 12:26:59;;;;;;;10.77;7.05;;;6.60;76.70;;;;;;5102725;28;20172;-84
2023/02/06 12:29:35;;;;;;;11.60;6.85;;;6.70;77.60;;;;;;5104132;28;20190;-83
2023/02/06 12:32:05;;;;;;;11.07;7.95;;;6.80;78.30;;;;;;5102985;28;20195;-84
2023/02/06 12:34:49;;;;;;;14.90;9.07;;;6.90;77.30;;;;;;5088294;28;20298;-84
2023/02/06 12:37:20;;;;;;;13.77;8.05;;;6.90;77.20;;;;;;5101352;28;20207;-84
2023/02/06 12:39:46;;;;;;;14.60;7.25;;;6.90;78.10;;;;;;5102932;28;20194;-83
2023/02/06 12:42:31;;;;;;;16.27;10.27;;;6.80;77.70;;;;;;5084683;28;20249;-84
2023/02/06 12:45:23;;;;;;;13.82;8.98;;;6.80;77.10;;;;;;5084812;28;21641;-83
2023/02/06 12:47:58;;;;;;;12.88;7.85;;;6.70;77.40;;;;;;5084482;28;20212;-83
2023/02/06 12:50:44;;;;;;;11.27;7.78;;;6.70;77.40;;;;;;5100446;28;20271;-84
2023/02/06 12:53:16;;;;;;;12.13;7.68;;;6.70;77.10;;;;;;5103108;28;20318;-83
2023/02/06 12:55:45;;;;;;;11.75;7.38;;;6.70;77.00;;;;;;5108492;28;20190;-83